sensor_id;sensor_type;location;lat;lon;timestamp;pressure;altitude;pressure_sealevel;temperature;humidity
63339;BME280;70568;51.378;-1.342;2023-11-18T00:01:24;100384.14;;;5.08;37.24
63339;BME280;70568;51.378;-1.342;2023-11-18T00:03:50;100382.63;;;6.59;35.69
63339;BME280;70568;51.378;-1.342;2023-11-18T00:06:17;100389.05;;;4.49;38.02
63339;BME280;70568;51.378;-1.342;2023-11-18T00:08:43;100389.67;;;5.67;37.37
63339;BME280;70568;51.378;-1.342;2023-11-18T00:11:10;100385.09;;;7.30;35.34
63339;BME280;70568;51.378;-1.342;2023-11-18T00:13:36;100377.10;;;7.05;36.55
63339;BME280;70568;51.378;-1.342;2023-11-18T00:16:03;100370.96;;;5.32;38.68
63339;BME280;70568;51.378;-1.342;2023-11-18T00:18:31;100363.97;;;6.37;37.68
63339;BME280;70568;51.378;-1.342;2023-11-18T00:20:57;100370.30;;;6.14;37.86
63339;BME280;70568;51.378;-1.342;2023-11-18T00:23:24;100356.10;;;6.37;36.81
63339;BME280;70568;51.378;-1.342;2023-11-18T00:25:50;100351.82;;;6.07;37.29
63339;BME280;70568;51.378;-1.342;2023-11-18T00:28:17;100350.92;;;6.95;36.76
63339;BME280;70568;51.378;-1.342;2023-11-18T00:30:43;100345.06;;;4.79;38.84
63339;BME280;70568;51.378;-1.342;2023-11-18T00:33:10;100334.79;;;5.25;37.61
63339;BME280;70568;51.378;-1.342;2023-11-18T00:35:36;100320.82;;;6.12;36.91
63339;BME280;70568;51.378;-1.342;2023-11-18T00:38:03;100318.55;;;5.33;37.65
63339;BME280;70568;51.378;-1.342;2023-11-18T00:40:30;100316.86;;;5.53;38.68
63339;BME280;70568;51.378;-1.342;2023-11-18T00:42:56;100293.94;;;4.90;39.45
63339;BME280;70568;51.378;-1.342;2023-11-18T00:45:23;100278.32;;;6.32;38.10
63339;BME280;70568;51.378;-1.342;2023-11-18T00:47:50;100284.78;;;5.55;39.78
63339;BME280;70568;51.378;-1.342;2023-11-18T00:50:18;100286.61;;;6.48;39.23
63339;BME280;70568;51.378;-1.342;2023-11-18T00:52:46;100285.13;;;6.08;38.03
63339;BME280;70568;51.378;-1.342;2023-11-18T00:55:12;100273.87;;;5.62;39.12
63339;BME280;70568;51.378;-1.342;2023-11-18T00:57:39;100266.69;;;5.39;39.91
63339;BME280;70568;51.378;-1.342;2023-11-18T01:00:07;100257.81;;;4.88;39.56
63339;BME280;70568;51.378;-1.342;2023-11-18T01:02:34;100268.13;;;5.29;39.99
63339;BME280;70568;51.378;-1.342;2023-11-18T01:05:01;100265.43;;;4.89;40.36
63339;BME280;70568;51.378;-1.342;2023-11-18T01:07:28;100248.06;;;6.27;38.95
63339;BME280;70568;51.378;-1.342;2023-11-18T01:09:56;100240.80;;;5.17;42.00
63339;BME280;70568;51.378;-1.342;2023-11-18T01:12:22;100235.13;;;5.48;40.80
63339;BME280;70568;51.378;-1.342;2023-11-18T01:14:49;100218.87;;;5.18;40.38
63339;BME280;70568;51.378;-1.342;2023-11-18T01:17:15;100221.55;;;5.64;41.93
63339;BME280;70568;51.378;-1.342;2023-11-18T01:19:42;100221.41;;;5.37;41.67
63339;BME280;70568;51.378;-1.342;2023-11-18T01:22:08;100225.33;;;6.84;40.06
63339;BME280;70568;51.378;-1.342;2023-11-18T01:24:35;100216.05;;;6.05;40.12
63339;BME280;70568;51.378;-1.342;2023-11-18T01:27:01;100215.14;;;5.89;40.18
63339;BME280;70568;51.378;-1.342;2023-11-18T01:29:28;100212.80;;;5.97;39.77
63339;BME280;70568;51.378;-1.342;2023-11-18T01:31:55;100205.77;;;5.20;40.66
63339;BME280;70568;51.378;-1.342;2023-11-18T01:34:22;100200.57;;;6.65;38.98
63339;BME280;70568;51.378;-1.342;2023-11-18T01:36:49;100192.33;;;5.57;39.93
63339;BME280;70568;51.378;-1.342;2023-11-18T01:39:17;100185.86;;;4.96;43.68
63339;BME280;70568;51.378;-1.342;2023-11-18T01:41:44;100185.66;;;5.11;41.74
63339;BME280;70568;51.378;-1.342;2023-11-18T01:44:11;100183.37;;;6.65;40.55
63339;BME280;70568;51.378;-1.342;2023-11-18T01:46:38;100190.38;;;6.73;41.16
63339;BME280;70568;51.378;-1.342;2023-11-18T01:49:07;100188.45;;;4.64;44.36
63339;BME280;70568;51.378;-1.342;2023-11-18T01:51:34;100180.75;;;3.66;46.99
63339;BME280;70568;51.378;-1.342;2023-11-18T01:54:02;100174.35;;;2.04;48.39
63339;BME280;70568;51.378;-1.342;2023-11-18T01:56:30;100170.36;;;4.93;44.61
63339;BME280;70568;51.378;-1.342;2023-11-18T01:58:57;100162.62;;;7.46;41.99
63339;BME280;70568;51.378;-1.342;2023-11-18T02:01:23;100146.69;;;5.17;43.58
63339;BME280;70568;51.378;-1.342;2023-11-18T02:03:51;100149.31;;;6.53;42.67
63339;BME280;70568;51.378;-1.342;2023-11-18T02:06:17;100146.34;;;5.92;44.39
63339;BME280;70568;51.378;-1.342;2023-11-18T02:08:44;100142.68;;;5.12;43.24
63339;BME280;70568;51.378;-1.342;2023-11-18T02:11:19;100129.09;;;5.95;42.91
63339;BME280;70568;51.378;-1.342;2023-11-18T02:13:48;100120.72;;;5.98;44.55
63339;BME280;70568;51.378;-1.342;2023-11-18T02:16:17;100114.14;;;4.77;45.73
63339;BME280;70568;51.378;-1.342;2023-11-18T02:18:46;100112.19;;;5.04;47.18
63339;BME280;70568;51.378;-1.342;2023-11-18T02:21:14;100110.96;;;4.18;48.04
63339;BME280;70568;51.378;-1.342;2023-11-18T02:23:41;100099.25;;;4.44;46.97
63339;BME280;70568;51.378;-1.342;2023-11-18T02:26:08;100101.69;;;4.66;46.15
63339;BME280;70568;51.378;-1.342;2023-11-18T02:28:36;100100.19;;;5.07;47.96
63339;BME280;70568;51.378;-1.342;2023-11-18T02:31:08;100096.04;;;3.30;48.63
63339;BME280;70568;51.378;-1.342;2023-11-18T02:33:43;100094.13;;;3.13;48.40
63339;BME280;70568;51.378;-1.342;2023-11-18T02:36:16;100087.02;;;2.90;48.63
63339;BME280;70568;51.378;-1.342;2023-11-18T02:38:50;100082.71;;;4.53;46.01
63339;BME280;70568;51.378;-1.342;2023-11-18T02:41:17;100077.77;;;5.47;44.64
63339;BME280;70568;51.378;-1.342;2023-11-18T02:43:45;100070.41;;;5.98;43.82
63339;BME280;70568;51.378;-1.342;2023-11-18T02:46:13;100072.11;;;4.35;47.58
63339;BME280;70568;51.378;-1.342;2023-11-18T02:48:40;100062.31;;;3.59;47.18
63339;BME280;70568;51.378;-1.342;2023-11-18T02:51:06;100051.67;;;4.71;46.89
63339;BME280;70568;51.378;-1.342;2023-11-18T02:53:34;100044.51;;;4.54;47.94
63339;BME280;70568;51.378;-1.342;2023-11-18T02:56:00;100046.78;;;5.48;46.77
63339;BME280;70568;51.378;-1.342;2023-11-18T02:58:28;100036.95;;;5.54;48.14
63339;BME280;70568;51.378;-1.342;2023-11-18T03:00:55;100033.22;;;4.28;48.47
63339;BME280;70568;51.378;-1.342;2023-11-18T03:03:22;100034.16;;;4.75;47.84
63339;BME280;70568;51.378;-1.342;2023-11-18T03:05:48;100037.01;;;5.09;47.53
63339;BME280;70568;51.378;-1.342;2023-11-18T03:08:14;100027.21;;;1.96;51.02
63339;BME280;70568;51.378;-1.342;2023-11-18T03:10:41;100013.56;;;4.15;49.71
63339;BME280;70568;51.378;-1.342;2023-11-18T03:13:07;100011.34;;;4.50;49.78
63339;BME280;70568;51.378;-1.342;2023-11-18T03:15:34;100000.59;;;4.21;49.40
63339;BME280;70568;51.378;-1.342;2023-11-18T03:18:00;99996.89;;;4.66;47.86
63339;BME280;70568;51.378;-1.342;2023-11-18T03:20:28;99997.08;;;4.81;49.41
63339;BME280;70568;51.378;-1.342;2023-11-18T03:22:54;99990.60;;;3.27;49.45
63339;BME280;70568;51.378;-1.342;2023-11-18T03:25:21;99980.33;;;3.34;47.52
63339;BME280;70568;51.378;-1.342;2023-11-18T03:27:48;99976.94;;;3.57;50.30
63339;BME280;70568;51.378;-1.342;2023-11-18T03:30:16;99969.13;;;3.20;50.10
63339;BME280;70568;51.378;-1.342;2023-11-18T03:32:43;99960.34;;;4.69;47.79
63339;BME280;70568;51.378;-1.342;2023-11-18T03:35:09;99960.46;;;3.56;49.42
63339;BME280;70568;51.378;-1.342;2023-11-18T03:37:36;99944.97;;;3.97;50.09
63339;BME280;70568;51.378;-1.342;2023-11-18T03:40:04;99932.05;;;3.94;51.17
63339;BME280;70568;51.378;-1.342;2023-11-18T03:42:31;99929.98;;;3.00;53.20
63339;BME280;70568;51.378;-1.342;2023-11-18T03:44:58;99937.34;;;2.73;53.14
63339;BME280;70568;51.378;-1.342;2023-11-18T03:47:24;99936.18;;;3.53;52.24
63339;BME280;70568;51.378;-1.342;2023-11-18T03:49:51;99940.04;;;2.95;53.48
63339;BME280;70568;51.378;-1.342;2023-11-18T03:52:18;99923.84;;;4.10;50.03
63339;BME280;70568;51.378;-1.342;2023-11-18T03:54:45;99913.04;;;4.75;51.25
63339;BME280;70568;51.378;-1.342;2023-11-18T03:57:11;99903.55;;;4.83;49.04
63339;BME280;70568;51.378;-1.342;2023-11-18T03:59:39;99883.64;;;3.16;51.99
63339;BME280;70568;51.378;-1.342;2023-11-18T04:02:05;99901.23;;;2.73;52.96
63339;BME280;70568;51.378;-1.342;2023-11-18T04:04:32;99891.83;;;4.23;52.42
63339;BME280;70568;51.378;-1.342;2023-11-18T04:06:58;99874.11;;;5.75;48.98
63339;BME280;70568;51.378;-1.342;2023-11-18T04:09:25;99864.09;;;5.24;47.43
63339;BME280;70568;51.378;-1.342;2023-11-18T04:11:51;99860.49;;;5.92;48.60
63339;BME280;70568;51.378;-1.342;2023-11-18T04:14:18;99853.74;;;2.90;49.82
63339;BME280;70568;51.378;-1.342;2023-11-18T04:16:45;99852.20;;;4.27;48.85
63339;BME280;70568;51.378;-1.342;2023-11-18T04:19:12;99848.57;;;4.53;51.15
63339;BME280;70568;51.378;-1.342;2023-11-18T04:21:39;99841.45;;;5.50;50.04
63339;BME280;70568;51.378;-1.342;2023-11-18T04:24:06;99838.18;;;5.64;49.17
63339;BME280;70568;51.378;-1.342;2023-11-18T04:26:33;99827.69;;;4.74;50.33
63339;BME280;70568;51.378;-1.342;2023-11-18T04:29:00;99829.85;;;3.51;51.28
63339;BME280;70568;51.378;-1.342;2023-11-18T04:31:28;99841.54;;;4.93;50.15
63339;BME280;70568;51.378;-1.342;2023-11-18T04:33:55;99841.76;;;3.71;50.36
63339;BME280;70568;51.378;-1.342;2023-11-18T04:36:21;99844.19;;;4.04;49.67
63339;BME280;70568;51.378;-1.342;2023-11-18T04:38:49;99831.37;;;4.04;49.84
63339;BME280;70568;51.378;-1.342;2023-11-18T04:41:15;99842.93;;;4.39;50.69
63339;BME280;70568;51.378;-1.342;2023-11-18T04:43:42;99850.80;;;4.20;49.42
63339;BME280;70568;51.378;-1.342;2023-11-18T04:46:08;99844.93;;;5.83;49.94
63339;BME280;70568;51.378;-1.342;2023-11-18T04:48:35;99823.68;;;5.27;50.82
63339;BME280;70568;51.378;-1.342;2023-11-18T04:51:01;99811.93;;;5.18;48.74
63339;BME280;70568;51.378;-1.342;2023-11-18T04:53:29;99801.62;;;5.63;50.26
63339;BME280;70568;51.378;-1.342;2023-11-18T04:55:57;99795.25;;;4.62;49.57
63339;BME280;70568;51.378;-1.342;2023-11-18T04:58:23;99788.89;;;4.03;49.96
63339;BME280;70568;51.378;-1.342;2023-11-18T05:00:50;99778.38;;;5.35;48.14
63339;BME280;70568;51.378;-1.342;2023-11-18T05:03:16;99782.54;;;6.26;47.30
63339;BME280;70568;51.378;-1.342;2023-11-18T05:05:44;99774.99;;;5.81;47.34
63339;BME280;70568;51.378;-1.342;2023-11-18T05:08:18;99771.31;;;6.61;46.94
63339;BME280;70568;51.378;-1.342;2023-11-18T05:10:47;99772.83;;;4.58;48.99
63339;BME280;70568;51.378;-1.342;2023-11-18T05:13:13;99776.81;;;5.00;49.03
63339;BME280;70568;51.378;-1.342;2023-11-18T05:15:40;99757.63;;;4.96;49.24
63339;BME280;70568;51.378;-1.342;2023-11-18T05:18:06;99741.76;;;4.74;49.75
63339;BME280;70568;51.378;-1.342;2023-11-18T05:20:33;99753.00;;;4.46;50.16
63339;BME280;70568;51.378;-1.342;2023-11-18T05:22:59;99750.47;;;3.59;50.66
63339;BME280;70568;51.378;-1.342;2023-11-18T05:25:26;99742.84;;;3.95;51.70
63339;BME280;70568;51.378;-1.342;2023-11-18T05:27:52;99747.70;;;5.45;49.03
63339;BME280;70568;51.378;-1.342;2023-11-18T05:30:19;99736.59;;;5.56;47.54
63339;BME280;70568;51.378;-1.342;2023-11-18T05:32:45;99742.29;;;6.65;46.92
63339;BME280;70568;51.378;-1.342;2023-11-18T05:35:12;99731.77;;;5.73;46.27
63339;BME280;70568;51.378;-1.342;2023-11-18T05:37:38;99726.72;;;6.79;46.65
63339;BME280;70568;51.378;-1.342;2023-11-18T05:40:07;99714.67;;;5.08;48.27
63339;BME280;70568;51.378;-1.342;2023-11-18T05:42:34;99709.30;;;7.50;45.25
63339;BME280;70568;51.378;-1.342;2023-11-18T05:45:01;99710.93;;;5.75;46.18
63339;BME280;70568;51.378;-1.342;2023-11-18T05:47:29;99721.95;;;4.48;49.61
63339;BME280;70568;51.378;-1.342;2023-11-18T05:49:56;99709.91;;;6.74;45.83
63339;BME280;70568;51.378;-1.342;2023-11-18T05:52:22;99696.92;;;5.96;46.06
63339;BME280;70568;51.378;-1.342;2023-11-18T05:54:49;99687.72;;;7.13;44.54
63339;BME280;70568;51.378;-1.342;2023-11-18T05:57:16;99688.93;;;6.48;45.34
63339;BME280;70568;51.378;-1.342;2023-11-18T05:59:43;99682.20;;;6.53;43.63
63339;BME280;70568;51.378;-1.342;2023-11-18T06:02:11;99679.80;;;6.14;45.29
63339;BME280;70568;51.378;-1.342;2023-11-18T06:04:37;99686.21;;;9.13;43.59
63339;BME280;70568;51.378;-1.342;2023-11-18T06:07:04;99668.29;;;6.86;45.71
63339;BME280;70568;51.378;-1.342;2023-11-18T06:09:31;99665.61;;;6.55;46.80
63339;BME280;70568;51.378;-1.342;2023-11-18T06:11:57;99667.88;;;7.72;46.79
63339;BME280;70568;51.378;-1.342;2023-11-18T06:14:24;99664.48;;;5.90;48.20
63339;BME280;70568;51.378;-1.342;2023-11-18T06:16:50;99653.19;;;6.83;47.13
63339;BME280;70568;51.378;-1.342;2023-11-18T06:19:17;99647.51;;;6.71;47.16
63339;BME280;70568;51.378;-1.342;2023-11-18T06:21:43;99651.68;;;7.54;46.38
63339;BME280;70568;51.378;-1.342;2023-11-18T06:24:10;99645.37;;;6.08;46.30
63339;BME280;70568;51.378;-1.342;2023-11-18T06:26:36;99635.74;;;7.22;46.70
63339;BME280;70568;51.378;-1.342;2023-11-18T06:29:04;99627.91;;;7.71;45.61
63339;BME280;70568;51.378;-1.342;2023-11-18T06:31:30;99622.00;;;6.61;47.06
63339;BME280;70568;51.378;-1.342;2023-11-18T06:33:56;99613.81;;;8.09;45.88
63339;BME280;70568;51.378;-1.342;2023-11-18T06:36:23;99609.09;;;8.07;45.30
63339;BME280;70568;51.378;-1.342;2023-11-18T06:38:51;99607.96;;;5.59;46.47
63339;BME280;70568;51.378;-1.342;2023-11-18T06:41:20;99601.71;;;8.79;44.02
63339;BME280;70568;51.378;-1.342;2023-11-18T06:43:48;99609.98;;;6.29;46.48
63339;BME280;70568;51.378;-1.342;2023-11-18T06:46:14;99613.58;;;7.43;46.05
63339;BME280;70568;51.378;-1.342;2023-11-18T06:48:40;99605.39;;;6.31;47.49
63339;BME280;70568;51.378;-1.342;2023-11-18T06:51:07;99599.96;;;7.17;46.15
63339;BME280;70568;51.378;-1.342;2023-11-18T06:53:34;99578.05;;;5.85;48.21
63339;BME280;70568;51.378;-1.342;2023-11-18T06:56:01;99585.13;;;8.86;47.59
63339;BME280;70568;51.378;-1.342;2023-11-18T06:58:28;99583.28;;;5.22;51.36
63339;BME280;70568;51.378;-1.342;2023-11-18T07:00:55;99559.13;;;5.98;48.45
63339;BME280;70568;51.378;-1.342;2023-11-18T07:03:21;99560.49;;;6.73;46.24
63339;BME280;70568;51.378;-1.342;2023-11-18T07:05:47;99567.57;;;8.06;45.94
63339;BME280;70568;51.378;-1.342;2023-11-18T07:08:14;99575.38;;;8.53;47.00
63339;BME280;70568;51.378;-1.342;2023-11-18T07:10:40;99569.23;;;7.50;47.92
63339;BME280;70568;51.378;-1.342;2023-11-18T07:13:07;99573.25;;;7.96;47.47
63339;BME280;70568;51.378;-1.342;2023-11-18T07:15:33;99578.44;;;8.50;48.38
63339;BME280;70568;51.378;-1.342;2023-11-18T07:18:00;99572.63;;;8.82;46.91
63339;BME280;70568;51.378;-1.342;2023-11-18T07:20:27;99557.69;;;9.94;46.21
63339;BME280;70568;51.378;-1.342;2023-11-18T07:22:53;99552.82;;;7.43;47.57
63339;BME280;70568;51.378;-1.342;2023-11-18T07:25:20;99559.80;;;8.35;47.93
63339;BME280;70568;51.378;-1.342;2023-11-18T07:27:47;99560.61;;;7.51;47.02
63339;BME280;70568;51.378;-1.342;2023-11-18T07:30:14;99566.53;;;9.88;48.40
63339;BME280;70568;51.378;-1.342;2023-11-18T07:32:41;99571.49;;;8.37;50.05
63339;BME280;70568;51.378;-1.342;2023-11-18T07:35:08;99568.42;;;7.98;48.41
63339;BME280;70568;51.378;-1.342;2023-11-18T07:37:35;99574.20;;;8.32;48.14
63339;BME280;70568;51.378;-1.342;2023-11-18T07:40:03;99565.48;;;9.01;47.89
63339;BME280;70568;51.378;-1.342;2023-11-18T07:42:31;99557.72;;;9.33;47.60
63339;BME280;70568;51.378;-1.342;2023-11-18T07:44:57;99556.80;;;8.97;48.06
63339;BME280;70568;51.378;-1.342;2023-11-18T07:47:24;99556.67;;;8.87;47.14
63339;BME280;70568;51.378;-1.342;2023-11-18T07:49:50;99570.87;;;6.77;51.47
63339;BME280;70568;51.378;-1.342;2023-11-18T07:52:17;99572.24;;;8.15;48.32
63339;BME280;70568;51.378;-1.342;2023-11-18T07:54:43;99570.83;;;7.58;48.75
63339;BME280;70568;51.378;-1.342;2023-11-18T07:57:10;99569.23;;;7.78;49.21
63339;BME280;70568;51.378;-1.342;2023-11-18T07:59:36;99564.42;;;9.38;47.49
63339;BME280;70568;51.378;-1.342;2023-11-18T08:02:03;99547.31;;;8.30;49.00
63339;BME280;70568;51.378;-1.342;2023-11-18T08:04:30;99534.34;;;9.89;49.07
63339;BME280;70568;51.378;-1.342;2023-11-18T08:06:57;99540.00;;;7.34;49.85
63339;BME280;70568;51.378;-1.342;2023-11-18T08:09:24;99543.92;;;8.11;49.46
63339;BME280;70568;51.378;-1.342;2023-11-18T08:11:50;99539.83;;;9.63;46.17
63339;BME280;70568;51.378;-1.342;2023-11-18T08:14:17;99546.02;;;9.09;46.65
63339;BME280;70568;51.378;-1.342;2023-11-18T08:16:44;99535.21;;;8.98;46.75
63339;BME280;70568;51.378;-1.342;2023-11-18T08:19:10;99532.98;;;10.58;46.20
63339;BME280;70568;51.378;-1.342;2023-11-18T08:21:37;99532.69;;;7.54;48.75
63339;BME280;70568;51.378;-1.342;2023-11-18T08:24:05;99534.29;;;10.23;46.88
63339;BME280;70568;51.378;-1.342;2023-11-18T08:26:32;99532.15;;;9.46;46.38
63339;BME280;70568;51.378;-1.342;2023-11-18T08:28:59;99531.20;;;11.16;45.71
63339;BME280;70568;51.378;-1.342;2023-11-18T08:31:26;99543.44;;;9.40;48.97
63339;BME280;70568;51.378;-1.342;2023-11-18T08:33:52;99531.58;;;10.13;47.96
63339;BME280;70568;51.378;-1.342;2023-11-18T08:36:19;99538.72;;;9.07;49.50
63339;BME280;70568;51.378;-1.342;2023-11-18T08:38:45;99536.42;;;8.18;50.14
63339;BME280;70568;51.378;-1.342;2023-11-18T08:41:11;99534.37;;;9.93;49.40
63339;BME280;70568;51.378;-1.342;2023-11-18T08:43:38;99537.42;;;9.67;51.27
63339;BME280;70568;51.378;-1.342;2023-11-18T08:46:04;99529.59;;;9.27;51.39
63339;BME280;70568;51.378;-1.342;2023-11-18T08:48:31;99536.18;;;9.95;51.83
63339;BME280;70568;51.378;-1.342;2023-11-18T08:50:57;99537.16;;;8.77;50.79
63339;BME280;70568;51.378;-1.342;2023-11-18T08:53:23;99545.33;;;9.86;50.14
63339;BME280;70568;51.378;-1.342;2023-11-18T08:55:50;99539.82;;;9.68;48.99
63339;BME280;70568;51.378;-1.342;2023-11-18T08:58:16;99532.75;;;10.84;48.87
63339;BME280;70568;51.378;-1.342;2023-11-18T09:00:44;99518.28;;;10.18;50.51
63339;BME280;70568;51.378;-1.342;2023-11-18T09:03:11;99502.62;;;9.13;52.10
63339;BME280;70568;51.378;-1.342;2023-11-18T09:05:37;99481.79;;;9.25;52.20
63339;BME280;70568;51.378;-1.342;2023-11-18T09:08:04;99477.53;;;7.62;54.54
63339;BME280;70568;51.378;-1.342;2023-11-18T09:10:31;99481.99;;;7.21;56.37
63339;BME280;70568;51.378;-1.342;2023-11-18T09:12:57;99502.61;;;8.90;54.58
63339;BME280;70568;51.378;-1.342;2023-11-18T09:15:24;99514.32;;;7.42;54.61
63339;BME280;70568;51.378;-1.342;2023-11-18T09:17:50;99500.32;;;9.20;52.10
63339;BME280;70568;51.378;-1.342;2023-11-18T09:20:18;99486.00;;;9.37;52.58
63339;BME280;70568;51.378;-1.342;2023-11-18T09:22:46;99482.85;;;8.41;52.49
63339;BME280;70568;51.378;-1.342;2023-11-18T09:25:12;99490.70;;;8.99;53.18
63339;BME280;70568;51.378;-1.342;2023-11-18T09:27:39;99482.37;;;8.92;53.42
63339;BME280;70568;51.378;-1.342;2023-11-18T09:30:07;99492.07;;;8.80;52.20
63339;BME280;70568;51.378;-1.342;2023-11-18T09:32:34;99484.45;;;8.93;51.86
63339;BME280;70568;51.378;-1.342;2023-11-18T09:35:00;99484.84;;;9.11;52.12
63339;BME280;70568;51.378;-1.342;2023-11-18T09:37:27;99489.00;;;8.27;52.76
63339;BME280;70568;51.378;-1.342;2023-11-18T09:39:54;99489.55;;;9.47;52.33
63339;BME280;70568;51.378;-1.342;2023-11-18T09:42:21;99486.01;;;9.52;51.18
63339;BME280;70568;51.378;-1.342;2023-11-18T09:44:47;99491.74;;;8.24;52.05
63339;BME280;70568;51.378;-1.342;2023-11-18T09:47:14;99497.13;;;8.48;54.70
63339;BME280;70568;51.378;-1.342;2023-11-18T09:49:45;99511.21;;;8.66;55.20
63339;BME280;70568;51.378;-1.342;2023-11-18T09:52:16;99523.14;;;8.93;53.69
63339;BME280;70568;51.378;-1.342;2023-11-18T09:54:50;99524.67;;;9.23;53.89
63339;BME280;70568;51.378;-1.342;2023-11-18T09:57:26;99529.12;;;10.73;52.27
63339;BME280;70568;51.378;-1.342;2023-11-18T09:59:57;99539.03;;;8.46;55.92
63339;BME280;70568;51.378;-1.342;2023-11-18T10:02:29;99527.37;;;9.45;51.68
63339;BME280;70568;51.378;-1.342;2023-11-18T10:04:56;99521.15;;;10.41;50.89
63339;BME280;70568;51.378;-1.342;2023-11-18T10:07:25;99520.56;;;10.36;50.12
63339;BME280;70568;51.378;-1.342;2023-11-18T10:09:54;99516.95;;;10.23;49.65
63339;BME280;70568;51.378;-1.342;2023-11-18T10:12:20;99522.11;;;11.19;48.85
63339;BME280;70568;51.378;-1.342;2023-11-18T10:14:47;99527.84;;;9.57;50.29
63339;BME280;70568;51.378;-1.342;2023-11-18T10:17:13;99523.63;;;9.72;50.24
63339;BME280;70568;51.378;-1.342;2023-11-18T10:19:57;99519.00;;;10.97;49.89
63339;BME280;70568;51.378;-1.342;2023-11-18T10:22:25;99513.23;;;7.96;51.15
63339;BME280;70568;51.378;-1.342;2023-11-18T10:24:52;99514.18;;;10.52;49.17
63339;BME280;70568;51.378;-1.342;2023-11-18T10:27:19;99520.69;;;11.89;48.65
63339;BME280;70568;51.378;-1.342;2023-11-18T10:29:45;99534.49;;;10.89;48.82
63339;BME280;70568;51.378;-1.342;2023-11-18T10:32:14;99535.93;;;10.81;48.15
63339;BME280;70568;51.378;-1.342;2023-11-18T10:34:42;99529.49;;;10.64;49.63
63339;BME280;70568;51.378;-1.342;2023-11-18T10:37:09;99531.47;;;10.94;50.12
63339;BME280;70568;51.378;-1.342;2023-11-18T10:39:36;99535.76;;;9.23;49.47
63339;BME280;70568;51.378;-1.342;2023-11-18T10:42:04;99524.68;;;10.74;50.36
63339;BME280;70568;51.378;-1.342;2023-11-18T10:44:31;99524.75;;;9.32;52.18
63339;BME280;70568;51.378;-1.342;2023-11-18T10:46:58;99525.90;;;10.72;48.89
63339;BME280;70568;51.378;-1.342;2023-11-18T10:49:24;99538.30;;;10.38;49.17
63339;BME280;70568;51.378;-1.342;2023-11-18T10:51:53;99531.51;;;10.66;51.14
63339;BME280;70568;51.378;-1.342;2023-11-18T10:54:20;99523.04;;;9.85;52.06
63339;BME280;70568;51.378;-1.342;2023-11-18T10:56:48;99519.68;;;9.11;52.23
63339;BME280;70568;51.378;-1.342;2023-11-18T10:59:16;99537.31;;;9.74;54.45
63339;BME280;70568;51.378;-1.342;2023-11-18T11:01:43;99537.55;;;8.44;53.40
63339;BME280;70568;51.378;-1.342;2023-11-18T11:04:10;99520.65;;;9.05;56.05
63339;BME280;70568;51.378;-1.342;2023-11-18T11:06:41;99525.12;;;8.54;57.20
63339;BME280;70568;51.378;-1.342;2023-11-18T11:09:08;99532.15;;;9.57;54.86
63339;BME280;70568;51.378;-1.342;2023-11-18T11:11:39;99528.68;;;8.72;55.78
63339;BME280;70568;51.378;-1.342;2023-11-18T11:14:06;99522.41;;;8.71;55.38
63339;BME280;70568;51.378;-1.342;2023-11-18T11:16:39;99514.60;;;10.22;52.51
63339;BME280;70568;51.378;-1.342;2023-11-18T11:19:07;99514.11;;;10.84;52.19
63339;BME280;70568;51.378;-1.342;2023-11-18T11:21:40;99520.21;;;8.40;54.09
63339;BME280;70568;51.378;-1.342;2023-11-18T11:24:15;99522.47;;;9.13;51.89
63339;BME280;70568;51.378;-1.342;2023-11-18T11:26:50;99517.19;;;10.05;51.21
63339;BME280;70568;51.378;-1.342;2023-11-18T11:29:25;99513.38;;;10.08;51.26
63339;BME280;70568;51.378;-1.342;2023-11-18T11:32:02;99506.90;;;9.16;51.61
63339;BME280;70568;51.378;-1.342;2023-11-18T11:34:32;99497.45;;;9.15;49.97
63339;BME280;70568;51.378;-1.342;2023-11-18T11:36:59;99499.95;;;10.97;50.27
63339;BME280;70568;51.378;-1.342;2023-11-18T11:39:27;99488.41;;;10.53;49.74
63339;BME280;70568;51.378;-1.342;2023-11-18T11:41:54;99497.67;;;10.89;50.23
63339;BME280;70568;51.378;-1.342;2023-11-18T11:44:21;99491.66;;;8.76;49.67
63339;BME280;70568;51.378;-1.342;2023-11-18T11:46:48;99502.66;;;11.70;46.98
63339;BME280;70568;51.378;-1.342;2023-11-18T11:49:16;99503.77;;;9.90;49.40
63339;BME280;70568;51.378;-1.342;2023-11-18T11:51:47;99500.40;;;10.60;48.27
63339;BME280;70568;51.378;-1.342;2023-11-18T11:54:18;99512.60;;;10.49;49.30
63339;BME280;70568;51.378;-1.342;2023-11-18T11:56:48;99493.71;;;9.56;52.22
63339;BME280;70568;51.378;-1.342;2023-11-18T11:59:15;99489.13;;;9.42;51.64
63339;BME280;70568;51.378;-1.342;2023-11-18T12:01:42;99495.01;;;8.55;51.56
63339;BME280;70568;51.378;-1.342;2023-11-18T12:04:09;99504.27;;;9.17;56.24
63339;BME280;70568;51.378;-1.342;2023-11-18T12:06:42;99499.62;;;8.37;54.28
63339;BME280;70568;51.378;-1.342;2023-11-18T12:09:09;99510.77;;;9.18;52.37
63339;BME280;70568;51.378;-1.342;2023-11-18T12:11:36;99510.27;;;10.33;50.23
63339;BME280;70568;51.378;-1.342;2023-11-18T12:14:06;99513.09;;;9.25;52.04
63339;BME280;70568;51.378;-1.342;2023-11-18T12:16:57;99495.82;;;8.66;53.94
63339;BME280;70568;51.378;-1.342;2023-11-18T12:19:30;99495.76;;;9.64;53.71
63339;BME280;70568;51.378;-1.342;2023-11-18T12:21:56;99497.06;;;9.99;51.86
63339;BME280;70568;51.378;-1.342;2023-11-18T12:24:23;99508.41;;;9.86;49.56
63339;BME280;70568;51.378;-1.342;2023-11-18T12:26:49;99505.96;;;9.80;49.93
63339;BME280;70568;51.378;-1.342;2023-11-18T12:29:32;99487.27;;;9.72;50.29
63339;BME280;70568;51.378;-1.342;2023-11-18T12:31:59;99499.62;;;10.23;48.53
63339;BME280;70568;51.378;-1.342;2023-11-18T12:34:49;99516.90;;;10.38;48.47
63339;BME280;70568;51.378;-1.342;2023-11-18T12:37:41;99513.80;;;10.34;50.82
63339;BME280;70568;51.378;-1.342;2023-11-18T12:40:50;99492.17;;;11.02;48.19
63339;BME280;70568;51.378;-1.342;2023-11-18T12:43:26;99496.49;;;11.87;45.90
63339;BME280;70568;51.378;-1.342;2023-11-18T12:46:17;99486.80;;;11.54;45.58
63339;BME280;70568;51.378;-1.342;2023-11-18T12:48:54;99476.82;;;12.24;45.83
63339;BME280;70568;51.378;-1.342;2023-11-18T12:51:24;99474.80;;;11.55;45.46
63339;BME280;70568;51.378;-1.342;2023-11-18T12:53:50;99475.60;;;11.77;45.75
63339;BME280;70568;51.378;-1.342;2023-11-18T12:56:19;99486.87;;;11.66;47.69
63339;BME280;70568;51.378;-1.342;2023-11-18T12:58:46;99502.24;;;8.98;51.82